createdAt,value
2017-01-27T00:00:19.149Z,0
2017-01-27T00:01:19.045Z,0
2017-01-27T00:02:19.143Z,0
2017-01-27T00:03:18.779Z,0
2017-01-27T00:04:19.084Z,0
2017-01-27T00:05:18.036Z,0
2017-01-27T00:06:18.894Z,0
2017-01-27T00:07:23.116Z,0
2017-01-27T00:08:21.183Z,0
2017-01-27T00:09:23.380Z,0
2017-01-27T00:10:21.465Z,0
2017-01-27T00:11:23.700Z,0
2017-01-27T00:12:18.901Z,0
2017-01-27T00:13:16.137Z,0
2017-01-27T00:14:17.905Z,0
2017-01-27T00:15:19.889Z,0
2017-01-27T00:16:17.323Z,0
2017-01-27T00:17:07.758Z,0
2017-01-27T00:18:07.722Z,0
2017-01-27T00:19:07.877Z,0
2017-01-27T00:20:07.837Z,0
2017-01-27T00:21:07.691Z,0
2017-01-27T00:22:09.551Z,0
2017-01-27T00:23:07.708Z,0
2017-01-27T00:24:07.703Z,0
2017-01-27T00:25:07.726Z,0
2017-01-27T00:26:07.701Z,0
2017-01-27T00:27:07.764Z,0
2017-01-27T00:28:07.717Z,0
2017-01-27T00:29:07.701Z,0
2017-01-27T00:30:08.746Z,0
2017-01-27T00:31:07.798Z,0
2017-01-27T00:32:07.829Z,0
2017-01-27T00:33:07.735Z,0
2017-01-27T00:34:07.698Z,0
2017-01-27T00:35:07.727Z,0
2017-01-27T00:36:07.716Z,0
2017-01-27T00:37:07.938Z,0
2017-01-27T00:38:07.679Z,0
2017-01-27T00:39:08.384Z,0
2017-01-27T00:40:07.818Z,0
2017-01-27T00:41:07.798Z,0
2017-01-27T00:42:07.749Z,0
2017-01-27T00:43:07.773Z,0
2017-01-27T00:44:07.718Z,0
2017-01-27T00:45:07.761Z,0
2017-01-27T00:46:07.702Z,0
2017-01-27T00:47:07.723Z,0
2017-01-27T00:48:07.686Z,0
2017-01-27T00:49:07.710Z,0
2017-01-27T00:50:07.824Z,0
2017-01-27T00:51:07.767Z,0
2017-01-27T00:52:07.745Z,0
2017-01-27T00:53:07.690Z,0
2017-01-27T00:54:07.698Z,0
2017-01-27T00:55:07.688Z,0
2017-01-27T00:56:07.700Z,0
2017-01-27T00:57:07.663Z,0
2017-01-27T00:58:07.735Z,0
2017-01-27T00:59:07.719Z,0
2017-01-27T01:00:07.724Z,0
2017-01-27T01:01:07.719Z,0
2017-01-27T01:02:07.711Z,0
2017-01-27T01:03:07.730Z,0
2017-01-27T01:04:07.714Z,0
2017-01-27T01:05:07.820Z,0
2017-01-27T01:06:07.748Z,0
2017-01-27T01:07:07.789Z,0
2017-01-27T01:08:07.708Z,0
2017-01-27T01:09:07.817Z,0
2017-01-27T01:10:07.737Z,0
2017-01-27T01:11:07.701Z,0
2017-01-27T01:12:07.705Z,0
2017-01-27T01:13:07.749Z,0
2017-01-27T01:14:07.711Z,0
2017-01-27T01:15:07.753Z,0
2017-01-27T01:16:07.715Z,0
2017-01-27T01:17:07.770Z,0
2017-01-27T01:18:07.758Z,0
2017-01-27T01:19:07.705Z,0
2017-01-27T01:20:07.770Z,0
2017-01-27T01:21:07.720Z,0
2017-01-27T01:22:07.755Z,0
2017-01-27T01:23:07.716Z,0
2017-01-27T01:24:07.721Z,0
2017-01-27T01:25:07.734Z,0
2017-01-27T01:26:07.736Z,0
2017-01-27T01:27:07.730Z,0
2017-01-27T01:28:07.708Z,0
2017-01-27T01:29:07.791Z,0
2017-01-27T01:30:07.716Z,0
2017-01-27T01:31:07.803Z,0
2017-01-27T01:32:07.724Z,0
2017-01-27T01:33:07.702Z,0
2017-01-27T01:34:07.814Z,0
2017-01-27T01:35:07.877Z,0
2017-01-27T01:36:07.718Z,0
2017-01-27T01:37:07.691Z,0
2017-01-27T01:38:07.776Z,0
2017-01-27T01:39:07.738Z,0
2017-01-27T01:40:07.747Z,0
2017-01-27T01:41:07.740Z,0
2017-01-27T01:42:07.734Z,0
2017-01-27T01:43:07.781Z,0
2017-01-27T01:44:07.743Z,0
2017-01-27T01:45:07.757Z,0
2017-01-27T01:46:07.783Z,0
2017-01-27T01:47:07.735Z,0
2017-01-27T01:48:07.741Z,0
2017-01-27T01:49:07.741Z,0
2017-01-27T01:50:07.741Z,0
2017-01-27T01:51:07.754Z,0
2017-01-27T01:52:07.740Z,0
2017-01-27T01:53:07.788Z,0
2017-01-27T01:54:07.776Z,0
2017-01-27T01:55:07.751Z,0
2017-01-27T01:56:07.767Z,0
2017-01-27T01:57:07.779Z,0
2017-01-27T01:58:07.750Z,0
2017-01-27T01:59:07.736Z,0
2017-01-27T02:00:07.760Z,0
2017-01-27T02:01:07.715Z,0
2017-01-27T02:02:07.720Z,0
2017-01-27T02:03:07.757Z,0
2017-01-27T02:04:07.758Z,0
2017-01-27T02:05:07.782Z,0
2017-01-27T02:06:07.742Z,0
2017-01-27T02:07:07.766Z,0
2017-01-27T02:08:07.745Z,0
2017-01-27T02:09:07.809Z,0
2017-01-27T02:10:07.765Z,0
2017-01-27T02:11:07.766Z,0
2017-01-27T02:12:07.760Z,0
2017-01-27T02:13:07.762Z,0
2017-01-27T02:14:07.758Z,0
2017-01-27T02:15:07.753Z,0
2017-01-27T02:16:07.750Z,0
2017-01-27T02:17:07.755Z,0
2017-01-27T02:18:07.765Z,0
2017-01-27T02:19:07.777Z,0
2017-01-27T02:20:07.744Z,0
2017-01-27T02:21:07.747Z,0
2017-01-27T02:22:07.746Z,0
2017-01-27T02:23:07.876Z,0
2017-01-27T02:24:07.773Z,0
2017-01-27T02:25:07.776Z,0
2017-01-27T02:26:07.748Z,0
2017-01-27T02:27:07.739Z,0
2017-01-27T02:28:07.809Z,0
2017-01-27T02:29:07.727Z,0
2017-01-27T02:30:07.775Z,0
2017-01-27T02:31:07.804Z,0
2017-01-27T02:32:07.768Z,0
2017-01-27T02:33:07.775Z,0
2017-01-27T02:34:07.751Z,0
2017-01-27T02:35:07.760Z,0
2017-01-27T02:36:07.789Z,0
2017-01-27T02:37:07.786Z,0
2017-01-27T02:38:07.773Z,0
2017-01-27T02:39:07.768Z,0
2017-01-27T02:40:07.775Z,0
2017-01-27T02:41:07.794Z,0
2017-01-27T02:42:07.776Z,0
2017-01-27T02:43:07.773Z,0
2017-01-27T02:44:07.767Z,0
2017-01-27T02:45:07.744Z,0
2017-01-27T02:46:07.810Z,0
2017-01-27T02:47:07.764Z,0
2017-01-27T02:48:07.790Z,0
2017-01-27T02:49:07.775Z,0
2017-01-27T02:50:07.774Z,0
2017-01-27T02:51:07.780Z,0
2017-01-27T02:52:07.802Z,0
2017-01-27T02:53:07.791Z,0
2017-01-27T02:54:07.786Z,0
2017-01-27T02:55:07.760Z,0
2017-01-27T02:56:07.751Z,0
2017-01-27T02:57:07.820Z,0
2017-01-27T02:58:07.781Z,0
2017-01-27T02:59:07.763Z,0
2017-01-27T03:00:07.755Z,0
2017-01-27T03:01:07.757Z,0
2017-01-27T03:02:07.809Z,0
2017-01-27T03:03:07.791Z,0
2017-01-27T03:04:07.762Z,0
2017-01-27T03:05:07.763Z,0
2017-01-27T03:06:07.877Z,0
2017-01-27T03:07:07.793Z,0
2017-01-27T03:08:07.830Z,0
2017-01-27T03:09:07.796Z,0
2017-01-27T03:10:07.786Z,0
2017-01-27T03:11:07.795Z,0
2017-01-27T03:12:07.787Z,0
2017-01-27T03:13:07.779Z,0
2017-01-27T03:14:07.774Z,0
2017-01-27T03:15:07.822Z,0
2017-01-27T03:16:07.780Z,0
2017-01-27T03:17:07.836Z,0
2017-01-27T03:18:07.798Z,0
2017-01-27T03:19:07.838Z,0
2017-01-27T03:20:07.769Z,0
2017-01-27T03:21:07.787Z,0
2017-01-27T03:22:07.856Z,0
2017-01-27T03:23:07.812Z,0
2017-01-27T03:24:07.788Z,0
2017-01-27T03:25:07.802Z,0
2017-01-27T03:26:07.795Z,0
2017-01-27T03:27:07.796Z,0
2017-01-27T03:28:07.766Z,0
2017-01-27T03:29:07.798Z,0
2017-01-27T03:30:07.789Z,0
2017-01-27T03:31:07.784Z,0
2017-01-27T03:32:07.787Z,0
2017-01-27T03:33:07.780Z,0
2017-01-27T03:34:07.806Z,0
2017-01-27T03:35:07.794Z,0
2017-01-27T03:36:07.820Z,0
2017-01-27T03:37:07.827Z,0
2017-01-27T03:38:07.875Z,0
2017-01-27T03:39:08.222Z,0
2017-01-27T03:40:07.800Z,0
2017-01-27T03:41:07.820Z,0
2017-01-27T03:42:07.782Z,0
2017-01-27T03:43:07.869Z,0
2017-01-27T03:44:07.827Z,0
2017-01-27T03:45:07.861Z,0
2017-01-27T03:46:07.840Z,0
2017-01-27T03:47:07.861Z,0
2017-01-27T03:48:07.838Z,0
2017-01-27T03:49:07.905Z,0
2017-01-27T03:50:07.835Z,0
2017-01-27T03:51:07.819Z,0
2017-01-27T03:52:07.810Z,0
2017-01-27T03:53:07.784Z,0
2017-01-27T03:54:07.922Z,0
2017-01-27T03:55:07.798Z,0
2017-01-27T03:56:07.811Z,0
2017-01-27T03:57:07.816Z,0
2017-01-27T03:58:07.800Z,0
2017-01-27T03:59:07.829Z,0
2017-01-27T04:00:07.808Z,0
2017-01-27T04:01:07.845Z,0
2017-01-27T04:02:07.814Z,0
2017-01-27T04:03:07.816Z,0
2017-01-27T04:04:07.861Z,0
2017-01-27T04:05:07.806Z,0
2017-01-27T04:06:07.836Z,0
2017-01-27T04:07:07.811Z,0
2017-01-27T04:08:07.803Z,0
2017-01-27T04:09:07.818Z,0
2017-01-27T04:10:07.804Z,0
2017-01-27T04:11:07.863Z,0
2017-01-27T04:12:07.793Z,0
2017-01-27T04:13:07.861Z,0
2017-01-27T04:14:07.825Z,0
2017-01-27T04:15:07.798Z,0
2017-01-27T04:16:07.849Z,0
2017-01-27T04:17:07.814Z,0
2017-01-27T04:18:07.800Z,0
2017-01-27T04:19:07.812Z,0
2017-01-27T04:20:07.823Z,0
2017-01-27T04:21:07.814Z,0
2017-01-27T04:22:07.820Z,0
2017-01-27T04:23:07.871Z,0
2017-01-27T04:24:07.855Z,0
2017-01-27T04:25:07.857Z,0
2017-01-27T04:26:07.889Z,0
2017-01-27T04:27:07.807Z,0
2017-01-27T04:28:07.804Z,0
2017-01-27T04:29:07.864Z,0
2017-01-27T04:30:07.847Z,0
2017-01-27T04:31:07.832Z,0
2017-01-27T04:32:07.878Z,0
2017-01-27T04:33:07.913Z,0
2017-01-27T04:34:07.895Z,0
2017-01-27T04:35:07.830Z,0
2017-01-27T04:36:07.845Z,0
2017-01-27T04:37:07.927Z,0
2017-01-27T04:38:07.824Z,0
2017-01-27T04:39:07.864Z,0
2017-01-27T04:40:07.855Z,0
2017-01-27T04:41:07.849Z,0
2017-01-27T04:42:07.902Z,0
2017-01-27T04:43:07.866Z,0
2017-01-27T04:44:07.943Z,0
2017-01-27T04:45:07.905Z,0
2017-01-27T04:46:07.838Z,0
2017-01-27T04:47:07.854Z,0
2017-01-27T04:48:07.864Z,0
2017-01-27T04:49:07.880Z,0
2017-01-27T04:50:07.922Z,0
2017-01-27T04:51:07.868Z,0
2017-01-27T04:52:07.858Z,0
2017-01-27T04:53:07.871Z,0
2017-01-27T04:54:07.903Z,0
2017-01-27T04:55:07.835Z,0
2017-01-27T04:56:07.896Z,0
2017-01-27T04:57:07.922Z,0
2017-01-27T04:58:07.923Z,0
2017-01-27T04:59:07.883Z,0
2017-01-27T05:00:07.995Z,0
2017-01-27T05:01:07.911Z,0
2017-01-27T05:02:07.859Z,0
2017-01-27T05:03:07.889Z,0
2017-01-27T05:04:07.903Z,0
2017-01-27T05:05:07.946Z,0
2017-01-27T05:06:07.915Z,0
2017-01-27T05:07:07.879Z,0
2017-01-27T05:08:07.923Z,0
2017-01-27T05:09:07.913Z,0
2017-01-27T05:10:07.881Z,0
2017-01-27T05:11:07.959Z,0
2017-01-27T05:12:07.888Z,0
2017-01-27T05:13:07.906Z,0
2017-01-27T05:14:07.895Z,0
2017-01-27T05:15:07.891Z,0
2017-01-27T05:16:07.892Z,0
2017-01-27T05:17:07.872Z,0
2017-01-27T05:18:07.906Z,0
2017-01-27T05:19:08.028Z,0
2017-01-27T05:20:07.966Z,0
2017-01-27T05:21:07.910Z,0
2017-01-27T05:22:07.885Z,0
2017-01-27T05:23:07.901Z,0
2017-01-27T05:24:07.856Z,0
2017-01-27T05:25:07.948Z,0
2017-01-27T05:26:07.910Z,0
2017-01-27T05:27:07.922Z,0
2017-01-27T05:28:07.903Z,0
2017-01-27T05:29:07.876Z,0
2017-01-27T05:30:07.856Z,0
2017-01-27T05:31:07.831Z,0
2017-01-27T05:32:07.877Z,0
2017-01-27T05:33:07.916Z,0
2017-01-27T05:34:07.848Z,0
2017-01-27T05:35:07.854Z,0
2017-01-27T05:36:07.846Z,0
2017-01-27T05:37:07.853Z,0
2017-01-27T05:38:07.868Z,0
2017-01-27T05:39:07.878Z,0
2017-01-27T05:40:07.832Z,0
2017-01-27T05:41:07.890Z,0
2017-01-27T05:42:07.857Z,0
2017-01-27T05:43:07.839Z,0
2017-01-27T05:44:07.874Z,0
2017-01-27T05:45:07.838Z,0
2017-01-27T05:46:07.873Z,0
2017-01-27T05:47:07.863Z,0
2017-01-27T05:48:07.858Z,0
2017-01-27T05:49:07.862Z,0
2017-01-27T05:50:07.855Z,0
2017-01-27T05:51:07.932Z,0
2017-01-27T05:52:07.871Z,0
2017-01-27T05:53:07.868Z,0
2017-01-27T05:54:07.873Z,0
2017-01-27T05:55:07.851Z,0
2017-01-27T05:56:07.915Z,0
2017-01-27T05:57:07.850Z,0
2017-01-27T05:58:07.878Z,0
2017-01-27T05:59:07.888Z,0
2017-01-27T06:00:07.849Z,0
2017-01-27T06:01:07.870Z,0
2017-01-27T06:02:07.857Z,0
2017-01-27T06:03:07.859Z,0
2017-01-27T06:04:07.862Z,0
2017-01-27T06:05:08.206Z,0
2017-01-27T06:06:07.935Z,0
2017-01-27T06:07:07.882Z,0
2017-01-27T06:08:07.866Z,0
2017-01-27T06:09:07.874Z,0
2017-01-27T06:10:07.901Z,0
2017-01-27T06:11:07.921Z,0
2017-01-27T06:12:07.905Z,0
2017-01-27T06:13:07.884Z,0
2017-01-27T06:14:07.868Z,0
2017-01-27T06:15:07.894Z,0
2017-01-27T06:16:07.890Z,0
2017-01-27T06:17:07.870Z,0
2017-01-27T06:18:07.876Z,0
2017-01-27T06:19:07.883Z,0
2017-01-27T06:20:07.902Z,0
2017-01-27T06:21:07.904Z,0
2017-01-27T06:22:07.892Z,0
2017-01-27T06:23:07.884Z,0
2017-01-27T06:24:07.885Z,0
2017-01-27T06:25:07.916Z,0
2017-01-27T06:26:07.895Z,0
2017-01-27T06:27:07.911Z,0
2017-01-27T06:28:07.881Z,0
2017-01-27T06:29:07.901Z,0
2017-01-27T06:30:07.914Z,0
2017-01-27T06:31:07.885Z,0
2017-01-27T06:32:07.921Z,0
2017-01-27T06:33:07.900Z,0
2017-01-27T06:34:07.923Z,0
2017-01-27T06:35:08.476Z,0
2017-01-27T06:36:07.884Z,0
2017-01-27T06:37:07.898Z,0
2017-01-27T06:38:07.892Z,0
2017-01-27T06:39:07.907Z,0
2017-01-27T06:40:07.883Z,0
2017-01-27T06:41:07.877Z,0
2017-01-27T06:42:07.898Z,0
2017-01-27T06:43:07.906Z,0
2017-01-27T06:44:07.929Z,0
2017-01-27T06:45:07.903Z,0
2017-01-27T06:46:07.907Z,0
2017-01-27T06:47:07.911Z,0
2017-01-27T06:48:07.915Z,0
2017-01-27T06:49:07.929Z,0
2017-01-27T06:50:07.884Z,0
2017-01-27T06:51:07.933Z,0
2017-01-27T06:52:07.976Z,0
2017-01-27T06:53:07.907Z,0
2017-01-27T06:54:07.898Z,0
2017-01-27T06:55:07.947Z,0
2017-01-27T06:56:08.083Z,0
2017-01-27T06:57:07.959Z,0
2017-01-27T06:58:07.966Z,0
2017-01-27T06:59:07.939Z,0
2017-01-27T07:00:07.939Z,0
2017-01-27T07:01:07.931Z,0
2017-01-27T07:02:08.067Z,0
2017-01-27T07:03:07.966Z,0
2017-01-27T07:04:07.936Z,0
2017-01-27T07:05:07.910Z,0
2017-01-27T07:06:07.892Z,0
2017-01-27T07:07:07.942Z,0
2017-01-27T07:08:08.075Z,0
2017-01-27T07:09:07.935Z,5
2017-01-27T07:10:08.039Z,5
2017-01-27T07:11:08.089Z,5
2017-01-27T07:12:07.947Z,5
2017-01-27T07:13:07.922Z,5
2017-01-27T07:14:07.909Z,5
2017-01-27T07:15:07.920Z,5
2017-01-27T07:16:07.912Z,5
2017-01-27T07:17:08.020Z,5
2017-01-27T07:18:07.899Z,5
2017-01-27T07:19:08.028Z,10
2017-01-27T07:20:08.193Z,10
2017-01-27T07:21:08.058Z,10
2017-01-27T07:22:08.045Z,10
2017-01-27T07:23:08.063Z,10
2017-01-27T07:24:07.916Z,10
2017-01-27T07:25:07.895Z,15
2017-01-27T07:26:07.909Z,15
2017-01-27T07:27:07.899Z,15
2017-01-27T07:28:07.925Z,15
2017-01-27T07:29:07.906Z,15
2017-01-27T07:30:07.930Z,20
2017-01-27T07:31:07.921Z,20
2017-01-27T07:32:07.931Z,20
2017-01-27T07:33:07.939Z,20
2017-01-27T07:34:07.973Z,20
2017-01-27T07:35:07.966Z,25
2017-01-27T07:36:07.942Z,25
2017-01-27T07:37:07.939Z,25
2017-01-27T07:38:07.968Z,25
2017-01-27T07:39:07.906Z,30
2017-01-27T07:40:07.914Z,30
2017-01-27T07:41:07.930Z,30
2017-01-27T07:42:07.975Z,30
2017-01-27T07:43:07.955Z,30
2017-01-27T07:44:07.948Z,35
2017-01-27T07:45:07.950Z,35
2017-01-27T07:46:07.929Z,35
2017-01-27T07:47:07.914Z,35
2017-01-27T07:48:07.936Z,35
2017-01-27T07:49:07.943Z,40
2017-01-27T07:50:07.914Z,40
2017-01-27T07:51:07.928Z,40
2017-01-27T07:52:07.934Z,40
2017-01-27T07:53:07.937Z,40
2017-01-27T07:54:07.945Z,40
2017-01-27T07:55:07.965Z,45
2017-01-27T07:56:07.944Z,45
2017-01-27T07:57:08.021Z,45
2017-01-27T07:58:07.945Z,45
2017-01-27T07:59:07.954Z,50
2017-01-27T08:00:07.961Z,50
2017-01-27T08:01:07.962Z,50
2017-01-27T08:02:07.937Z,50
2017-01-27T08:03:07.950Z,55
2017-01-27T08:04:08.061Z,55
2017-01-27T08:05:07.938Z,55
2017-01-27T08:06:07.946Z,55
2017-01-27T08:07:07.985Z,55
2017-01-27T08:08:07.975Z,55
2017-01-27T08:09:07.989Z,55
2017-01-27T08:10:07.971Z,60
2017-01-27T08:11:07.984Z,60
2017-01-27T08:12:07.997Z,65
2017-01-27T08:13:07.966Z,65
2017-01-27T08:14:07.996Z,65
2017-01-27T08:15:07.945Z,65
2017-01-27T08:16:07.993Z,65
2017-01-27T08:17:07.991Z,75
2017-01-27T08:18:07.981Z,70
2017-01-27T08:19:07.996Z,70
2017-01-27T08:20:08.043Z,75
2017-01-27T08:21:07.999Z,75
2017-01-27T08:22:07.967Z,75
2017-01-27T08:23:08.032Z,80
2017-01-27T08:24:07.996Z,80
2017-01-27T08:25:07.986Z,80
2017-01-27T08:26:07.958Z,85
2017-01-27T08:27:07.982Z,85
2017-01-27T08:28:07.977Z,85
2017-01-27T08:29:08.017Z,90
2017-01-27T08:30:07.979Z,90
2017-01-27T08:31:07.978Z,90
2017-01-27T08:32:08.005Z,90
2017-01-27T08:33:07.977Z,90
2017-01-27T08:34:07.996Z,90
2017-01-27T08:35:07.953Z,95
2017-01-27T08:36:07.998Z,95
2017-01-27T08:37:07.966Z,95
2017-01-27T08:38:07.988Z,95
2017-01-27T08:39:07.974Z,100
2017-01-27T08:40:07.998Z,100
2017-01-27T08:41:07.969Z,100
2017-01-27T08:42:07.977Z,100
2017-01-27T08:43:08.033Z,100
2017-01-27T08:44:07.954Z,100
2017-01-27T08:45:07.983Z,100
2017-01-27T08:46:07.974Z,100
2017-01-27T08:47:07.967Z,100
2017-01-27T08:48:07.972Z,100
2017-01-27T08:49:07.963Z,100
2017-01-27T08:50:07.981Z,105
2017-01-27T08:51:07.996Z,105
2017-01-27T08:52:07.986Z,105
2017-01-27T08:53:07.980Z,110
2017-01-27T08:54:08.000Z,110
2017-01-27T08:55:07.982Z,110
2017-01-27T08:56:07.988Z,115
2017-01-27T08:57:07.961Z,115
2017-01-27T08:58:07.986Z,115
2017-01-27T08:59:07.997Z,115
2017-01-27T09:00:07.970Z,115
2017-01-27T09:01:07.994Z,120
2017-01-27T09:02:07.974Z,120
2017-01-27T09:03:08.015Z,120
2017-01-27T09:04:07.992Z,125
2017-01-27T09:05:07.972Z,120
2017-01-27T09:06:08.023Z,120
2017-01-27T09:07:07.963Z,120
2017-01-27T09:08:07.955Z,125
2017-01-27T09:09:07.997Z,125
2017-01-27T09:10:07.981Z,125
2017-01-27T09:11:07.997Z,130
2017-01-27T09:12:07.981Z,130
2017-01-27T09:13:07.982Z,130
2017-01-27T09:14:07.973Z,135
2017-01-27T09:15:07.999Z,130
2017-01-27T09:16:08.001Z,135
2017-01-27T09:17:07.974Z,140
2017-01-27T09:18:07.971Z,135
2017-01-27T09:19:07.980Z,135
2017-01-27T09:20:07.992Z,135
2017-01-27T09:21:07.976Z,140
2017-01-27T09:22:07.985Z,140
2017-01-27T09:23:08.005Z,140
2017-01-27T09:24:08.019Z,140
2017-01-27T09:25:08.007Z,140
2017-01-27T09:26:07.990Z,140
2017-01-27T09:27:08.009Z,145
2017-01-27T09:28:07.995Z,145
2017-01-27T09:29:07.971Z,140
2017-01-27T09:30:07.996Z,145
2017-01-27T09:31:07.973Z,140
2017-01-27T09:32:07.992Z,140
2017-01-27T09:33:07.989Z,140
2017-01-27T09:34:08.019Z,140
2017-01-27T09:35:07.967Z,135
2017-01-27T09:36:08.008Z,135
2017-01-27T09:37:07.998Z,135
2017-01-27T09:38:08.011Z,135
2017-01-27T09:39:08.001Z,130
2017-01-27T09:40:08.006Z,130
2017-01-27T09:41:07.990Z,130
2017-01-27T09:42:08.011Z,130
2017-01-27T09:43:08.000Z,130
2017-01-27T09:44:08.030Z,130
2017-01-27T09:45:08.014Z,130
2017-01-27T09:46:07.994Z,135
2017-01-27T09:47:08.001Z,135
2017-01-27T09:48:08.027Z,135
2017-01-27T09:49:07.999Z,135
2017-01-27T09:50:08.002Z,135
2017-01-27T09:51:08.018Z,135
2017-01-27T09:52:08.056Z,135
2017-01-27T09:53:08.076Z,135
2017-01-27T09:54:08.606Z,140
2017-01-27T09:55:08.317Z,135
2017-01-27T09:56:08.014Z,135
2017-01-27T09:57:08.037Z,135
2017-01-27T09:58:08.036Z,135
2017-01-27T09:59:08.039Z,135
2017-01-27T10:00:08.039Z,135
2017-01-27T10:01:08.023Z,135
2017-01-27T10:02:08.023Z,135
2017-01-27T10:03:08.015Z,135
2017-01-27T10:04:08.011Z,135
2017-01-27T10:05:08.410Z,135
2017-01-27T10:06:08.031Z,135
2017-01-27T10:07:08.039Z,135
2017-01-27T10:08:08.027Z,135
2017-01-27T10:09:08.026Z,135
2017-01-27T10:10:08.080Z,130
2017-01-27T10:11:08.012Z,130
2017-01-27T10:12:08.216Z,130
2017-01-27T10:13:08.008Z,135
2017-01-27T10:14:08.029Z,135
2017-01-27T10:15:08.031Z,135
2017-01-27T10:16:08.007Z,135
2017-01-27T10:17:08.020Z,140
2017-01-27T10:18:08.058Z,140
2017-01-27T10:19:08.035Z,145
2017-01-27T10:20:08.039Z,145
2017-01-27T10:21:08.026Z,145
2017-01-27T10:22:08.043Z,145
2017-01-27T10:23:08.031Z,145
2017-01-27T10:24:08.027Z,150
2017-01-27T10:25:08.083Z,150
2017-01-27T10:26:08.033Z,145
2017-01-27T10:27:08.037Z,145
2017-01-27T10:28:08.060Z,150
2017-01-27T10:29:08.027Z,150
2017-01-27T10:30:08.062Z,150
2017-01-27T10:31:08.072Z,150
2017-01-27T10:32:08.027Z,150
2017-01-27T10:33:08.062Z,150
2017-01-27T10:34:08.075Z,155
2017-01-27T10:35:08.070Z,155
2017-01-27T10:36:08.057Z,160
2017-01-27T10:37:08.071Z,160
2017-01-27T10:38:08.072Z,165
2017-01-27T10:39:08.139Z,170
2017-01-27T10:40:08.046Z,170
2017-01-27T10:41:08.085Z,170
2017-01-27T10:42:08.117Z,170
2017-01-27T10:43:08.059Z,175
2017-01-27T10:44:08.056Z,175
2017-01-27T10:45:08.115Z,175
2017-01-27T10:46:08.318Z,180
2017-01-27T10:47:08.100Z,180
2017-01-27T10:48:08.152Z,180
2017-01-27T10:49:08.125Z,180
2017-01-27T10:50:08.087Z,180
2017-01-27T10:51:08.778Z,175
2017-01-27T10:52:08.058Z,175
2017-01-27T10:53:08.058Z,170
2017-01-27T10:54:08.147Z,165
2017-01-27T10:55:08.223Z,165
2017-01-27T10:56:09.768Z,160
2017-01-27T10:57:08.223Z,160
2017-01-27T10:58:08.855Z,155
2017-01-27T10:59:08.468Z,155
2017-01-27T11:00:10.246Z,155
2017-01-27T11:01:08.734Z,150
2017-01-27T11:02:09.086Z,150
2017-01-27T11:03:08.236Z,145
2017-01-27T11:04:08.113Z,140
2017-01-27T11:05:08.204Z,140
2017-01-27T11:06:08.290Z,140
2017-01-27T11:07:08.065Z,140
2017-01-27T11:08:08.093Z,140
2017-01-27T11:09:08.179Z,145
2017-01-27T11:10:08.076Z,145
2017-01-27T11:11:08.060Z,145
2017-01-27T11:12:08.059Z,145
2017-01-27T11:13:08.072Z,145
2017-01-27T11:14:08.085Z,145
2017-01-27T11:15:08.101Z,145
2017-01-27T11:16:08.143Z,145
2017-01-27T11:17:08.077Z,145
2017-01-27T11:18:08.108Z,145
2017-01-27T11:19:08.104Z,145
2017-01-27T11:20:08.084Z,140
2017-01-27T11:21:08.055Z,145
2017-01-27T11:22:08.056Z,145
2017-01-27T11:23:08.117Z,145
2017-01-27T11:24:08.591Z,140
2017-01-27T11:25:08.089Z,140
2017-01-27T11:26:08.087Z,145
2017-01-27T11:27:08.132Z,145
2017-01-27T11:28:08.194Z,150
2017-01-27T11:29:08.077Z,150
2017-01-27T11:30:08.545Z,155
2017-01-27T11:31:08.088Z,155
2017-01-27T11:32:08.093Z,155
2017-01-27T11:33:08.099Z,155
2017-01-27T11:34:08.157Z,155
2017-01-27T11:35:08.229Z,155
2017-01-27T11:36:08.092Z,155
2017-01-27T11:37:08.102Z,155
2017-01-27T11:38:08.147Z,150
2017-01-27T11:39:08.208Z,150
2017-01-27T11:40:08.452Z,150
2017-01-27T11:41:08.130Z,150
2017-01-27T11:42:08.292Z,150
2017-01-27T11:43:08.077Z,150
2017-01-27T11:44:08.144Z,150
2017-01-27T11:45:08.086Z,155
2017-01-27T11:46:08.172Z,155
2017-01-27T11:47:09.943Z,155
2017-01-27T11:48:11.407Z,155
2017-01-27T11:49:11.384Z,155
2017-01-27T11:50:11.245Z,155
2017-01-27T11:51:14.316Z,155
2017-01-27T11:52:11.135Z,155
2017-01-27T11:53:09.008Z,155
2017-01-27T11:54:08.200Z,155
2017-01-27T11:55:10.678Z,160
2017-01-27T11:56:08.233Z,160
2017-01-27T11:57:08.174Z,160
2017-01-27T11:58:08.127Z,165
2017-01-27T11:59:08.099Z,165
2017-01-27T12:00:08.265Z,170
2017-01-27T12:01:08.140Z,165
2017-01-27T12:02:08.071Z,165
2017-01-27T12:03:08.132Z,170
2017-01-27T12:04:08.973Z,170
2017-01-27T12:05:08.281Z,170
2017-01-27T12:06:08.094Z,170
2017-01-27T12:07:08.147Z,170
2017-01-27T12:08:08.356Z,165
2017-01-27T12:09:08.144Z,165
2017-01-27T12:10:08.126Z,165
2017-01-27T12:11:08.156Z,160
2017-01-27T12:12:08.252Z,160
2017-01-27T12:13:08.591Z,155
2017-01-27T12:14:08.119Z,155
2017-01-27T12:15:08.123Z,150
2017-01-27T12:16:08.160Z,150
2017-01-27T12:17:08.137Z,150
2017-01-27T12:18:08.134Z,145
2017-01-27T12:19:08.112Z,145
2017-01-27T12:20:08.120Z,145
2017-01-27T12:21:08.190Z,145
2017-01-27T12:22:08.176Z,145
2017-01-27T12:23:08.384Z,145
2017-01-27T12:24:08.451Z,145
2017-01-27T12:25:08.133Z,145
2017-01-27T12:26:08.101Z,140
2017-01-27T12:27:08.192Z,145
2017-01-27T12:28:08.123Z,140
2017-01-27T12:29:08.141Z,140
2017-01-27T12:30:08.239Z,135
2017-01-27T12:31:08.289Z,135
2017-01-27T12:32:08.179Z,135
2017-01-27T12:33:08.199Z,130
2017-01-27T12:34:08.158Z,130
2017-01-27T12:35:08.125Z,130
2017-01-27T12:36:08.272Z,140
2017-01-27T12:37:08.304Z,135
2017-01-27T12:38:08.109Z,135
2017-01-27T12:39:08.098Z,135
2017-01-27T12:40:08.134Z,135
2017-01-27T12:41:08.267Z,135
2017-01-27T12:42:08.118Z,135
2017-01-27T12:43:08.216Z,135
2017-01-27T12:44:08.101Z,135
2017-01-27T12:45:08.103Z,135
2017-01-27T12:46:08.134Z,135
2017-01-27T12:47:08.245Z,135
2017-01-27T12:48:08.141Z,140
2017-01-27T12:49:08.284Z,140
2017-01-27T12:50:08.225Z,140
2017-01-27T12:51:08.280Z,140
2017-01-27T12:52:08.314Z,140
2017-01-27T12:53:08.114Z,140
2017-01-27T12:54:08.193Z,140
2017-01-27T12:55:08.146Z,140
2017-01-27T12:56:08.142Z,135
2017-01-27T12:57:08.185Z,135
2017-01-27T12:58:08.177Z,135
2017-01-27T12:59:08.718Z,135
2017-01-27T13:00:08.250Z,135
2017-01-27T13:01:08.230Z,135
2017-01-27T13:02:08.193Z,135
2017-01-27T13:03:08.140Z,130
2017-01-27T13:04:08.145Z,130
2017-01-27T13:05:08.140Z,130
2017-01-27T13:06:08.134Z,125
2017-01-27T13:07:08.150Z,125
2017-01-27T13:08:08.334Z,125
2017-01-27T13:09:08.164Z,120
2017-01-27T13:10:08.211Z,120
2017-01-27T13:11:08.404Z,120
2017-01-27T13:12:08.303Z,120
2017-01-27T13:13:08.459Z,120
2017-01-27T13:14:08.129Z,120
2017-01-27T13:15:08.711Z,120
2017-01-27T13:16:08.313Z,120
2017-01-27T13:17:08.295Z,125
2017-01-27T13:18:08.222Z,125
2017-01-27T13:19:08.250Z,125
2017-01-27T13:20:08.154Z,120
2017-01-27T13:21:08.423Z,120
2017-01-27T13:22:08.155Z,115
2017-01-27T13:23:08.133Z,115
2017-01-27T13:24:08.158Z,110
2017-01-27T13:25:08.150Z,110
2017-01-27T13:26:08.177Z,105
2017-01-27T13:27:08.186Z,105
2017-01-27T13:28:08.383Z,105
2017-01-27T13:29:08.227Z,105
2017-01-27T13:30:08.181Z,100
2017-01-27T13:31:08.249Z,100
2017-01-27T13:32:08.499Z,105
2017-01-27T13:33:08.259Z,105
2017-01-27T13:34:08.410Z,105
2017-01-27T13:35:08.234Z,105
2017-01-27T13:36:08.368Z,110
2017-01-27T13:37:08.171Z,105
2017-01-27T13:38:08.232Z,105
2017-01-27T13:39:08.158Z,105
2017-01-27T13:40:08.172Z,105
2017-01-27T13:41:08.226Z,105
2017-01-27T13:42:08.238Z,105
2017-01-27T13:43:08.230Z,105
2017-01-27T13:44:08.225Z,105
2017-01-27T13:45:08.197Z,100
2017-01-27T13:46:08.170Z,100
2017-01-27T13:47:08.236Z,100
2017-01-27T13:48:08.287Z,100
2017-01-27T13:49:08.200Z,100
2017-01-27T13:50:08.387Z,100
2017-01-27T13:51:08.190Z,100
2017-01-27T13:52:08.267Z,100
2017-01-27T13:53:08.220Z,100
2017-01-27T13:54:08.212Z,100
2017-01-27T13:55:08.185Z,100
2017-01-27T13:56:08.208Z,95
2017-01-27T13:57:08.175Z,95
2017-01-27T13:58:08.283Z,95
2017-01-27T13:59:08.261Z,95
2017-01-27T14:00:08.176Z,95
2017-01-27T14:01:08.935Z,95
2017-01-27T14:02:08.192Z,95
2017-01-27T14:03:08.310Z,95
2017-01-27T14:04:08.214Z,95
2017-01-27T14:05:08.211Z,95
2017-01-27T14:06:08.225Z,100
2017-01-27T14:07:08.314Z,100
2017-01-27T14:08:08.245Z,100
2017-01-27T14:09:08.246Z,100
2017-01-27T14:10:08.375Z,100
2017-01-27T14:11:08.279Z,100
2017-01-27T14:12:08.364Z,100
2017-01-27T14:13:08.230Z,100
2017-01-27T14:14:08.273Z,100
2017-01-27T14:15:08.205Z,95
2017-01-27T14:16:08.473Z,95
2017-01-27T14:17:08.227Z,95
2017-01-27T14:18:08.219Z,95
2017-01-27T14:19:08.205Z,95